Troutville, Pennsylvania
Current Conditions -  °F | °C
As of 12:53 PM on Saturday 25 Oct 2014 (Local Time) from KDUJ Reporting Station
Broken Clouds Broken Clouds  
Wind Chill: 57°   Ceiling: 9000
Heat Index: 57°   Visibility: 10mi
Dew Point: 48°   Wind: 18mph
Humidity: 72%   Direction: 230°SW
Pressure: 29.81"   Gusts: NA
Location:  41.03°N, 78.79°W
Report Text: KDUJ 251653Z AUTO 23016KT 10SM FEW022 BKN090 14/09 A2981 RMK AO2 SLP096 T01390089 $
Loading
Personal Weather Stations






























Interactive Weather Map
Tropical Storm Tracking
New forecast layout! Learn more

10-Day Weather Forecast

Advertisements
Track Severe Weather on mobile